Time;durP1;ratioP1;P1;durP2;ratioP2;P2;SDS_P1;SDS_P2;PMS_P1;PMS_P2;Temp;Humidity;BMP_temperature;BMP_pressure;BME280_temperature;BME280_humidity;BME280_pressure;Samples;Min_cycle;Max_cycle;Signal;HPM_P1;HPM_P2
2023/01/05 00:00:10;;;;;;;17.20;4.40;;;12.60;99.40;;;;;;5134996;27;20446;-61
2023/01/05 00:02:38;;;;;;;13.83;3.60;;;12.60;99.40;;;;;;5134937;27;20472;-60
2023/01/05 00:05:05;;;;;;;13.83;3.23;;;12.60;99.40;;;;;;5134932;27;20470;-61
2023/01/05 00:07:32;;;;;;;16.77;3.63;;;12.60;99.50;;;;;;5134810;27;20519;-60
2023/01/05 00:09:58;;;;;;;30.40;4.67;;;12.50;99.50;;;;;;5134863;27;20490;-60
2023/01/05 00:23:24;;;;;;;21.17;4.73;;;12.50;99.40;;;;;;5134475;27;20406;-60
2023/01/05 00:25:50;;;;;;;23.20;4.37;;;12.50;99.40;;;;;;5134638;27;20454;-60
2023/01/05 00:28:17;;;;;;;16.43;4.37;;;12.50;99.40;;;;;;5134578;27;20461;-60
2023/01/05 00:30:46;;;;;;;12.93;3.20;;;12.50;99.40;;;;;;5134574;27;20453;-60
2023/01/05 00:33:16;;;;;;;17.13;3.50;;;12.40;99.30;;;;;;5134328;27;20450;-60
2023/01/05 00:35:43;;;;;;;22.77;5.70;;;12.50;99.40;;;;;;5134574;28;20542;-60
2023/01/05 00:38:10;;;;;;;19.77;3.73;;;12.50;99.20;;;;;;5134393;28;20465;-61
2023/01/05 00:40:36;;;;;;;15.20;4.30;;;12.50;99.20;;;;;;5134146;28;20450;-60
2023/01/05 00:43:03;;;;;;;18.73;4.70;;;12.50;99.30;;;;;;5134449;28;20446;-61
2023/01/05 00:45:30;;;;;;;24.93;4.37;;;12.50;99.30;;;;;;5134442;28;20446;-60
2023/01/05 00:47:57;;;;;;;16.73;4.27;;;12.40;99.30;;;;;;5134012;28;20956;-61
2023/01/05 00:50:25;;;;;;;16.20;3.63;;;12.40;99.40;;;;;;5134621;28;20441;-61
2023/01/05 00:52:52;;;;;;;11.63;3.53;;;12.40;99.40;;;;;;5134399;28;20477;-61
2023/01/05 00:55:19;;;;;;;15.77;4.83;;;12.40;99.30;;;;;;5134192;27;20481;-60
2023/01/05 00:57:47;;;;;;;22.80;5.50;;;12.40;99.40;;;;;;5137469;27;20523;-60
2023/01/05 01:00:18;;;;;;;16.40;3.93;;;12.50;99.40;;;;;;5139040;27;20529;-61
2023/01/05 01:02:45;;;;;;;19.17;4.43;;;12.40;99.30;;;;;;5138476;27;20554;-61
2023/01/05 01:05:12;;;;;;;19.60;3.80;;;12.40;99.40;;;;;;5138364;27;20465;-61
2023/01/05 01:07:40;;;;;;;18.63;4.00;;;12.50;99.40;;;;;;5138008;27;20934;-60
2023/01/05 01:10:08;;;;;;;17.57;4.33;;;12.50;99.50;;;;;;5138341;27;20455;-61
2023/01/05 01:12:35;;;;;;;13.50;3.10;;;12.40;99.40;;;;;;5138299;27;20473;-60
2023/01/05 01:15:02;;;;;;;21.33;3.97;;;12.40;99.60;;;;;;5138166;27;20476;-60
2023/01/05 01:17:28;;;;;;;18.57;3.63;;;12.50;99.50;;;;;;5138169;27;20446;-60
2023/01/05 01:19:55;;;;;;;17.50;3.27;;;12.40;99.50;;;;;;5138830;27;20449;-61
2023/01/05 01:22:22;;;;;;;24.20;3.70;;;12.40;99.70;;;;;;5138436;27;20836;-61
2023/01/05 01:24:51;;;;;;;14.57;3.53;;;12.40;99.60;;;;;;5138503;27;20449;-61
2023/01/05 01:27:18;;;;;;;21.30;4.20;;;12.50;99.90;;;;;;5138346;27;20445;-61
2023/01/05 01:29:44;;;;;;;16.70;3.60;;;12.50;99.90;;;;;;5138235;27;20453;-60
2023/01/05 01:32:11;;;;;;;18.07;3.70;;;12.40;99.90;;;;;;5138196;27;20466;-61
2023/01/05 01:34:38;;;;;;;18.87;3.63;;;12.40;99.90;;;;;;5138277;27;20485;-61
2023/01/05 01:37:05;;;;;;;16.80;5.00;;;12.40;99.90;;;;;;5138126;27;20454;-61
2023/01/05 01:39:32;;;;;;;13.17;2.80;;;12.40;99.90;;;;;;5137855;27;20462;-61
2023/01/05 01:42:00;;;;;;;16.00;4.13;;;12.30;99.90;;;;;;5137490;27;20466;-61
2023/01/05 01:44:50;;;;;;;20.17;4.47;;;12.30;99.90;;;;;;5137604;27;20475;-61
2023/01/05 01:47:23;;;;;;;21.60;4.40;;;12.20;99.90;;;;;;5137264;27;20450;-60
2023/01/05 01:49:50;;;;;;;16.80;4.03;;;12.30;99.90;;;;;;5137476;27;20441;-60
2023/01/05 01:52:19;;;;;;;15.70;3.97;;;12.30;99.90;;;;;;5137336;27;20477;-61
2023/01/05 01:54:46;;;;;;;17.77;4.17;;;12.30;99.90;;;;;;5137285;27;20481;-60
2023/01/05 01:57:15;;;;;;;19.70;4.50;;;12.30;99.90;;;;;;5137331;27;20507;-60
2023/01/05 01:59:42;;;;;;;22.10;4.30;;;12.30;99.90;;;;;;5137193;27;20500;-60
2023/01/05 02:02:12;;;;;;;10.20;3.73;;;12.20;99.90;;;;;;5137037;27;20474;-60
2023/01/05 02:04:39;;;;;;;16.00;4.97;;;12.30;99.90;;;;;;5137010;27;20446;-60
2023/01/05 02:07:09;;;;;;;11.67;3.10;;;12.30;99.90;;;;;;5137054;27;20446;-61
2023/01/05 02:09:36;;;;;;;18.50;3.53;;;12.30;99.90;;;;;;5137306;27;20445;-61
2023/01/05 02:12:12;;;;;;;19.17;4.57;;;12.20;99.90;;;;;;5137169;27;20462;-61
2023/01/05 02:14:48;;;;;;;21.37;4.37;;;12.20;99.90;;;;;;5136919;27;20457;-61
2023/01/05 02:17:24;;;;;;;23.33;5.40;;;12.20;99.90;;;;;;5137063;27;20445;-60
2023/01/05 02:20:32;;;;;;;20.97;4.03;;;12.20;99.90;;;;;;5137278;27;20787;-61
2023/01/05 02:23:31;;;;;;;20.30;4.87;;;12.20;99.90;;;;;;5136984;27;20483;-61
2023/01/05 02:26:44;;;;;;;14.37;4.73;;;12.10;99.90;;;;;;5136858;27;20819;-60
2023/01/05 02:29:32;;;;;;;18.87;4.00;;;12.00;99.90;;;;;;5136848;27;20794;-61
2023/01/05 02:32:05;;;;;;;15.90;4.03;;;12.00;99.90;;;;;;5136527;27;20841;-61
2023/01/05 02:34:42;;;;;;;23.10;5.70;;;12.00;99.90;;;;;;5136840;27;20426;-61
2023/01/05 02:37:13;;;;;;;20.73;3.73;;;12.00;99.90;;;;;;5136836;27;20429;-60
2023/01/05 02:39:49;;;;;;;15.93;5.60;;;12.00;99.90;;;;;;5136588;27;20460;-61
2023/01/05 02:42:20;;;;;;;21.13;4.40;;;12.00;99.90;;;;;;5136271;27;20836;-61
2023/01/05 02:44:47;;;;;;;21.63;4.30;;;11.90;99.90;;;;;;5136270;27;20442;-60
2023/01/05 02:47:38;;;;;;;22.67;4.80;;;11.90;99.90;;;;;;5136712;27;20434;-60
2023/01/05 02:50:09;;;;;;;17.03;5.33;;;11.90;99.90;;;;;;5136447;27;20469;-61
2023/01/05 02:52:42;;;;;;;14.37;4.30;;;11.90;99.90;;;;;;5136051;27;20589;-61
2023/01/05 02:55:13;;;;;;;18.57;4.03;;;11.90;99.90;;;;;;5136234;27;20466;-60
2023/01/05 02:57:49;;;;;;;23.07;5.10;;;12.00;99.90;;;;;;5136173;27;20474;-60
2023/01/05 03:00:21;;;;;;;19.47;6.07;;;12.00;99.90;;;;;;5136157;27;20441;-61
2023/01/05 03:02:55;;;;;;;14.57;4.10;;;12.00;99.90;;;;;;5136206;27;20496;-61
2023/01/05 03:05:26;;;;;;;15.83;4.50;;;12.00;99.90;;;;;;5136198;27;20430;-61
2023/01/05 03:08:05;;;;;;;17.80;3.90;;;12.00;99.90;;;;;;5135856;27;20955;-61
2023/01/05 03:16:07;;;;;;;22.83;4.50;;;12.00;99.90;;;;;;5135723;27;20527;-60
2023/01/05 03:19:34;;;;;;;23.03;4.60;;;11.90;99.90;;;;;;5135259;27;20507;-60
2023/01/05 03:21:25;;;;;;;20.83;4.07;;;11.90;99.90;;;;;;5135082;27;20465;-60
2023/01/05 03:37:51;;;;;;;19.83;4.43;;;11.80;99.90;;;;;;5135505;27;20917;-61
2023/01/05 03:40:22;;;;;;;14.00;4.50;;;11.90;99.90;;;;;;5135256;27;20449;-61
2023/01/05 03:42:49;;;;;;;17.27;4.67;;;11.90;99.90;;;;;;5135339;27;20470;-61
2023/01/05 03:45:17;;;;;;;19.03;5.27;;;11.80;99.90;;;;;;5134860;27;20940;-61
2023/01/05 03:47:44;;;;;;;22.37;5.17;;;11.90;99.90;;;;;;5135320;27;20475;-60
2023/01/05 03:50:13;;;;;;;23.73;5.50;;;11.90;99.90;;;;;;5136072;27;20482;-60
2023/01/05 03:52:39;;;;;;;21.80;5.13;;;11.90;99.90;;;;;;5135261;27;20470;-60
2023/01/05 03:55:06;;;;;;;19.30;4.30;;;11.80;99.90;;;;;;5135171;27;20456;-61
2023/01/05 03:57:33;;;;;;;15.37;3.93;;;11.90;99.90;;;;;;5135708;27;20461;-61
2023/01/05 04:00:00;;;;;;;18.40;4.20;;;11.90;99.90;;;;;;5135763;27;20450;-61
2023/01/05 04:02:26;;;;;;;19.27;4.10;;;11.80;99.90;;;;;;5135611;27;20989;-61
2023/01/05 04:04:53;;;;;;;22.70;4.50;;;11.70;99.90;;;;;;5136117;27;20453;-61
2023/01/05 04:07:21;;;;;;;19.40;3.90;;;11.70;99.90;;;;;;5135652;27;20442;-61
2023/01/05 04:09:48;;;;;;;15.27;3.67;;;11.70;99.90;;;;;;5135860;27;20445;-61
2023/01/05 04:12:14;;;;;;;17.00;5.23;;;11.60;99.90;;;;;;5136112;27;20466;-61
2023/01/05 04:14:41;;;;;;;20.00;4.50;;;11.60;99.90;;;;;;5135349;27;20445;-61
2023/01/05 04:17:08;;;;;;;25.43;5.43;;;11.70;99.90;;;;;;5135472;27;20480;-61
2023/01/05 04:19:34;;;;;;;18.63;4.17;;;11.70;99.90;;;;;;5136161;27;20449;-61
2023/01/05 04:22:01;;;;;;;22.17;4.47;;;11.70;99.90;;;;;;5134684;27;20466;-60
2023/01/05 04:24:29;;;;;;;27.30;5.00;;;11.70;99.90;;;;;;5134425;27;20967;-61
2023/01/05 04:26:56;;;;;;;19.67;4.40;;;11.60;99.90;;;;;;5134669;27;20449;-60
2023/01/05 04:29:22;;;;;;;21.77;4.77;;;11.60;99.90;;;;;;5134704;27;20453;-61
2023/01/05 04:31:49;;;;;;;30.67;5.37;;;11.50;99.90;;;;;;5134535;27;20879;-61
2023/01/05 04:34:16;;;;;;;20.17;4.30;;;11.40;99.90;;;;;;5134567;27;20453;-61
2023/01/05 04:36:43;;;;;;;18.33;4.37;;;11.40;99.90;;;;;;5134585;28;20489;-61
2023/01/05 04:39:09;;;;;;;18.83;3.70;;;11.30;99.90;;;;;;5134839;28;20441;-61
2023/01/05 04:41:37;;;;;;;20.10;4.00;;;11.30;99.90;;;;;;5134240;28;20996;-61
2023/01/05 04:44:05;;;;;;;19.53;4.50;;;11.40;99.90;;;;;;5135382;28;20452;-61
2023/01/05 04:46:31;;;;;;;19.10;4.87;;;11.40;99.90;;;;;;5134749;28;20483;-61
2023/01/05 04:48:58;;;;;;;21.30;4.87;;;11.40;99.90;;;;;;5135092;28;20430;-61
2023/01/05 04:51:25;;;;;;;20.10;3.97;;;11.40;99.90;;;;;;5134465;28;20497;-61
2023/01/05 04:53:52;;;;;;;22.30;4.63;;;11.40;99.90;;;;;;5134678;28;20798;-60
2023/01/05 04:56:18;;;;;;;22.40;6.93;;;11.40;99.90;;;;;;5134517;28;20483;-60
2023/01/05 04:58:46;;;;;;;25.70;5.07;;;11.30;99.90;;;;;;5134010;28;20449;-61
2023/01/05 05:01:13;;;;;;;24.73;6.07;;;11.30;99.90;;;;;;5134575;28;20461;-60
2023/01/05 05:03:40;;;;;;;19.50;4.57;;;11.30;99.90;;;;;;5134395;28;20459;-60
2023/01/05 05:06:07;;;;;;;21.40;4.90;;;11.30;99.90;;;;;;5134314;28;20441;-60
2023/01/05 05:08:33;;;;;;;26.20;5.70;;;11.40;99.90;;;;;;5134366;28;20461;-61
2023/01/05 05:11:00;;;;;;;31.83;6.57;;;11.40;99.90;;;;;;5134507;28;20471;-61
2023/01/05 05:13:27;;;;;;;21.37;4.10;;;11.40;99.90;;;;;;5134472;28;20976;-60
2023/01/05 05:15:55;;;;;;;20.27;5.00;;;11.40;99.90;;;;;;5134506;28;20478;-60
2023/01/05 05:18:23;;;;;;;22.17;5.57;;;11.40;99.90;;;;;;5135189;28;20439;-60
2023/01/05 05:20:52;;;;;;;20.23;4.33;;;11.40;99.90;;;;;;5135244;28;20444;-61
2023/01/05 05:23:19;;;;;;;20.17;4.77;;;11.40;99.90;;;;;;5135575;28;20798;-60
2023/01/05 05:25:49;;;;;;;23.73;5.27;;;11.40;99.90;;;;;;5135982;28;20441;-60
2023/01/05 05:28:16;;;;;;;27.63;5.67;;;11.40;99.90;;;;;;5134969;28;20430;-60
2023/01/05 05:30:42;;;;;;;18.70;5.90;;;11.50;99.90;;;;;;5134227;28;20445;-60
2023/01/05 05:33:10;;;;;;;17.13;4.67;;;11.50;99.90;;;;;;5134177;28;20949;-60
2023/01/05 05:35:37;;;;;;;20.80;4.83;;;11.40;99.90;;;;;;5134470;28;20431;-60
2023/01/05 05:38:04;;;;;;;26.73;5.90;;;11.50;99.90;;;;;;5134581;28;20445;-60
2023/01/05 05:40:30;;;;;;;24.67;4.67;;;11.50;99.90;;;;;;5134204;28;20837;-60
2023/01/05 05:42:57;;;;;;;17.00;5.20;;;11.50;99.90;;;;;;5136095;27;20472;-60
2023/01/05 05:45:24;;;;;;;27.37;6.60;;;11.50;99.90;;;;;;5138234;27;20453;-60
2023/01/05 05:47:51;;;;;;;17.73;5.20;;;11.50;99.90;;;;;;5138132;27;20828;-60
2023/01/05 05:50:19;;;;;;;25.20;5.57;;;11.50;99.90;;;;;;5137770;27;20460;-61
2023/01/05 05:52:45;;;;;;;21.03;5.33;;;11.50;99.90;;;;;;5137903;27;20461;-60
2023/01/05 05:55:12;;;;;;;23.73;5.60;;;11.40;99.90;;;;;;5137814;27;20449;-60
2023/01/05 05:57:39;;;;;;;24.20;5.53;;;11.50;99.90;;;;;;5138191;27;20480;-60
2023/01/05 06:00:07;;;;;;;24.07;4.80;;;11.50;99.90;;;;;;5137765;27;20450;-60
2023/01/05 06:02:33;;;;;;;34.43;5.47;;;11.50;99.90;;;;;;5137181;27;20973;-60
2023/01/05 06:05:00;;;;;;;20.07;5.50;;;11.50;99.90;;;;;;5137604;27;20467;-60
2023/01/05 06:07:28;;;;;;;26.90;5.20;;;11.50;99.90;;;;;;5137744;27;20438;-60
2023/01/05 06:09:55;;;;;;;21.07;6.03;;;11.50;99.90;;;;;;5137679;27;20460;-60
2023/01/05 06:12:21;;;;;;;21.27;5.57;;;11.60;99.90;;;;;;5137339;27;20990;-60
2023/01/05 06:14:48;;;;;;;15.57;4.03;;;11.50;99.90;;;;;;5138501;27;20928;-61
2023/01/05 06:17:15;;;;;;;19.73;5.33;;;11.50;99.90;;;;;;5138177;27;20503;-61
2023/01/05 06:19:41;;;;;;;20.60;5.57;;;11.60;99.90;;;;;;5137970;27;20464;-61
2023/01/05 06:22:08;;;;;;;33.60;6.53;;;11.60;99.90;;;;;;5137628;27;20981;-61
2023/01/05 06:24:36;;;;;;;35.30;7.90;;;11.60;99.90;;;;;;5138058;27;20461;-61
2023/01/05 06:27:03;;;;;;;23.30;5.50;;;11.50;99.90;;;;;;5137810;27;20442;-61
2023/01/05 06:29:29;;;;;;;19.23;5.00;;;11.60;99.90;;;;;;5137756;27;20436;-60
2023/01/05 06:31:56;;;;;;;26.67;6.43;;;11.60;99.90;;;;;;5136904;27;20846;-60
2023/01/05 06:34:23;;;;;;;24.23;6.00;;;11.60;99.90;;;;;;5136735;27;20453;-60
2023/01/05 06:36:49;;;;;;;20.80;5.30;;;11.60;99.90;;;;;;5136788;27;20478;-60
2023/01/05 06:39:16;;;;;;;19.93;5.00;;;11.60;99.90;;;;;;5137165;27;20816;-60
2023/01/05 06:41:44;;;;;;;23.60;5.80;;;11.70;99.90;;;;;;5137299;27;20473;-61
2023/01/05 06:44:11;;;;;;;19.77;5.47;;;11.70;99.90;;;;;;5136917;27;20465;-60
2023/01/05 06:46:39;;;;;;;23.27;5.83;;;11.70;99.90;;;;;;5136881;27;20438;-60
2023/01/05 06:49:07;;;;;;;21.80;6.13;;;11.70;99.90;;;;;;5136976;27;20549;-60
2023/01/05 06:51:33;;;;;;;20.60;5.07;;;11.70;99.90;;;;;;5136697;27;20466;-61
2023/01/05 06:54:00;;;;;;;25.57;6.20;;;11.70;99.90;;;;;;5135735;27;20454;-60
2023/01/05 06:56:27;;;;;;;20.70;6.50;;;11.70;99.90;;;;;;5136976;27;20477;-60
2023/01/05 06:58:55;;;;;;;20.80;4.40;;;11.70;99.90;;;;;;5137168;27;20446;-61
2023/01/05 07:01:21;;;;;;;21.60;6.70;;;11.70;99.90;;;;;;5136915;27;20475;-60
2023/01/05 07:03:48;;;;;;;29.97;6.13;;;11.60;99.90;;;;;;5136861;27;20457;-60
2023/01/05 07:06:15;;;;;;;29.33;6.17;;;11.60;99.90;;;;;;5136743;27;20442;-60
2023/01/05 07:08:43;;;;;;;26.13;5.73;;;11.60;99.90;;;;;;5136800;27;20817;-60
2023/01/05 07:11:09;;;;;;;23.60;5.20;;;11.60;99.90;;;;;;5136775;27;20473;-61
2023/01/05 07:13:36;;;;;;;22.23;5.50;;;11.70;99.90;;;;;;5136287;27;20444;-60
2023/01/05 07:16:05;;;;;;;21.77;6.13;;;11.70;99.90;;;;;;5136688;27;20450;-60
2023/01/05 07:18:31;;;;;;;16.00;6.30;;;11.70;99.90;;;;;;5136468;27;20449;-60
2023/01/05 07:20:59;;;;;;;35.27;7.13;;;11.70;99.90;;;;;;5136403;27;20473;-60
2023/01/05 07:23:26;;;;;;;26.17;5.63;;;11.70;99.90;;;;;;5136424;27;20450;-60
2023/01/05 07:25:52;;;;;;;28.13;6.90;;;11.70;99.90;;;;;;5135895;27;20821;-61
2023/01/05 07:28:19;;;;;;;26.57;6.87;;;11.70;99.90;;;;;;5136313;27;20846;-60
2023/01/05 07:30:51;;;;;;;40.23;6.57;;;11.70;99.90;;;;;;5136115;27;20446;-60
2023/01/05 07:33:19;;;;;;;27.03;7.30;;;11.70;99.90;;;;;;5136156;27;20454;-60
2023/01/05 07:35:45;;;;;;;25.90;5.97;;;11.70;99.90;;;;;;5135794;27;20941;-60
2023/01/05 07:38:12;;;;;;;24.67;7.47;;;11.70;99.90;;;;;;5136160;27;20478;-60
2023/01/05 07:40:39;;;;;;;22.23;5.23;;;11.70;99.90;;;;;;5135775;27;20466;-61
2023/01/05 07:43:06;;;;;;;23.43;6.20;;;11.70;99.90;;;;;;5136068;27;20442;-60
2023/01/05 07:45:32;;;;;;;19.30;4.80;;;11.70;99.90;;;;;;5135794;27;20453;-60
2023/01/05 07:47:59;;;;;;;23.97;6.20;;;11.70;99.90;;;;;;5136096;27;20465;-60
2023/01/05 07:50:28;;;;;;;30.37;5.77;;;11.70;99.90;;;;;;5136488;27;20485;-60
2023/01/05 07:52:54;;;;;;;20.83;5.87;;;11.60;99.90;;;;;;5136722;27;20485;-60
2023/01/05 07:55:21;;;;;;;34.87;8.77;;;11.60;99.90;;;;;;5136897;27;20442;-60
2023/01/05 07:57:48;;;;;;;28.43;7.80;;;11.70;99.90;;;;;;5136593;27;20492;-60
2023/01/05 08:00:15;;;;;;;23.00;5.80;;;11.70;99.90;;;;;;5136735;27;20438;-60
2023/01/05 08:02:42;;;;;;;30.83;6.60;;;11.70;99.90;;;;;;5136721;27;20462;-60
2023/01/05 08:05:09;;;;;;;26.40;7.13;;;11.60;99.90;;;;;;5136186;27;20452;-60
2023/01/05 08:07:37;;;;;;;23.10;6.17;;;11.60;99.90;;;;;;5136066;27;20447;-60
2023/01/05 08:15:33;;;;;;;19.97;6.03;;;11.70;99.90;;;;;;5135238;27;20398;-60
2023/01/05 08:18:00;;;;;;;18.57;5.53;;;11.70;99.90;;;;;;5135371;27;20489;-60
2023/01/05 08:20:27;;;;;;;31.67;6.93;;;11.60;99.90;;;;;;5135535;27;20443;-60
2023/01/05 08:22:55;;;;;;;18.23;6.07;;;11.70;99.90;;;;;;5135537;27;20462;-60
2023/01/05 08:25:21;;;;;;;25.70;6.90;;;11.70;99.90;;;;;;5135252;27;20458;-60
2023/01/05 08:27:48;;;;;;;23.37;5.73;;;11.70;99.90;;;;;;5135242;27;20813;-60
2023/01/05 08:30:15;;;;;;;40.33;7.60;;;11.70;99.90;;;;;;5134800;27;20956;-60
2023/01/05 08:32:42;;;;;;;21.17;5.13;;;11.70;99.90;;;;;;5134792;27;20479;-60
2023/01/05 08:35:09;;;;;;;25.60;5.90;;;11.80;99.90;;;;;;5134701;27;20874;-60
2023/01/05 08:37:36;;;;;;;22.30;6.73;;;11.80;99.90;;;;;;5135079;27;20466;-60
2023/01/05 08:40:05;;;;;;;29.60;6.80;;;11.80;99.90;;;;;;5134730;28;20450;-60
2023/01/05 08:42:32;;;;;;;33.37;7.20;;;11.90;99.90;;;;;;5134814;28;20474;-60
2023/01/05 08:44:59;;;;;;;28.20;6.87;;;11.90;99.90;;;;;;5135106;28;20446;-60
2023/01/05 08:47:25;;;;;;;27.23;6.90;;;11.90;99.90;;;;;;5134816;28;20446;-60
2023/01/05 08:49:52;;;;;;;28.23;6.70;;;11.90;99.90;;;;;;5134737;28;20457;-60
2023/01/05 08:52:19;;;;;;;23.27;6.43;;;11.90;99.90;;;;;;5134879;28;20466;-60
2023/01/05 08:54:45;;;;;;;27.20;7.43;;;11.90;99.90;;;;;;5135206;28;20450;-60
2023/01/05 08:57:13;;;;;;;21.90;5.03;;;11.90;99.90;;;;;;5134764;28;20496;-60
2023/01/05 08:59:40;;;;;;;22.00;6.10;;;11.90;99.90;;;;;;5135035;28;20449;-60
2023/01/05 09:02:10;;;;;;;31.33;6.80;;;12.00;99.90;;;;;;5135176;28;20477;-60
2023/01/05 09:04:36;;;;;;;28.30;6.27;;;12.00;99.90;;;;;;5135407;28;20437;-60
2023/01/05 09:07:03;;;;;;;28.43;6.10;;;12.00;99.90;;;;;;5134929;28;20487;-60
2023/01/05 09:09:30;;;;;;;29.37;6.60;;;12.00;99.90;;;;;;5135542;28;20462;-60
2023/01/05 09:11:56;;;;;;;31.33;6.33;;;11.90;99.90;;;;;;5134608;28;20474;-60
2023/01/05 09:14:24;;;;;;;25.13;5.63;;;12.00;99.90;;;;;;5134956;28;20449;-61
2023/01/05 09:16:51;;;;;;;17.37;6.50;;;12.00;99.90;;;;;;5134560;27;20539;-60
2023/01/05 09:19:18;;;;;;;25.43;7.00;;;12.00;99.90;;;;;;5138787;27;20438;-60
2023/01/05 09:21:44;;;;;;;36.70;5.97;;;12.00;99.90;;;;;;5138542;27;20481;-60
2023/01/05 09:24:12;;;;;;;25.10;6.23;;;12.10;99.90;;;;;;5138788;27;20446;-60
2023/01/05 09:26:39;;;;;;;25.20;6.20;;;12.10;99.90;;;;;;5138511;27;20449;-60
2023/01/05 09:29:05;;;;;;;18.20;6.20;;;12.00;99.90;;;;;;5139114;27;20901;-60
2023/01/05 09:31:33;;;;;;;26.30;6.23;;;12.00;99.90;;;;;;5138744;27;20837;-61
2023/01/05 09:34:00;;;;;;;29.73;6.93;;;12.00;99.90;;;;;;5139400;27;20459;-61
2023/01/05 09:36:27;;;;;;;25.90;5.60;;;12.00;99.90;;;;;;5139770;27;20450;-61
2023/01/05 09:38:55;;;;;;;27.47;6.90;;;12.00;99.90;;;;;;5138946;27;20484;-60
2023/01/05 09:41:24;;;;;;;28.83;6.40;;;12.00;99.90;;;;;;5139027;27;20478;-60
2023/01/05 09:43:55;;;;;;;30.23;8.53;;;12.00;99.90;;;;;;5139348;27;20450;-61
2023/01/05 09:46:26;;;;;;;31.47;6.97;;;12.00;99.90;;;;;;5138823;27;20433;-60
2023/01/05 09:48:59;;;;;;;20.73;5.73;;;12.00;99.90;;;;;;5139141;27;20429;-60
2023/01/05 09:51:25;;;;;;;34.87;6.93;;;12.10;99.90;;;;;;5139024;27;20474;-61
2023/01/05 09:53:52;;;;;;;30.53;6.83;;;12.20;99.90;;;;;;5138975;27;20461;-60
2023/01/05 09:56:27;;;;;;;27.77;6.27;;;12.30;99.90;;;;;;5138342;27;20512;-60
2023/01/05 09:59:02;;;;;;;28.37;5.77;;;12.30;99.90;;;;;;5138116;27;20476;-60
2023/01/05 10:01:32;;;;;;;25.77;6.03;;;12.40;99.90;;;;;;5137779;27;20476;-60
2023/01/05 10:04:05;;;;;;;25.87;7.40;;;12.50;99.90;;;;;;5137926;27;20427;-60
2023/01/05 10:06:36;;;;;;;32.10;6.37;;;12.50;99.90;;;;;;5137516;27;20921;-60
2023/01/05 10:09:05;;;;;;;24.20;6.80;;;12.50;99.90;;;;;;5138079;27;20839;-61
2023/01/05 10:14:30;;;;;;;25.03;5.97;;;12.50;99.90;;;;;;5137754;27;20529;-60
2023/01/05 10:16:57;;;;;;;31.63;6.43;;;12.40;99.90;;;;;;5137497;27;20441;-60
2023/01/05 10:19:25;;;;;;;22.63;6.60;;;12.50;99.90;;;;;;5137614;27;20443;-60
2023/01/05 10:22:00;;;;;;;25.27;7.77;;;12.50;99.90;;;;;;5137559;27;20470;-60
2023/01/05 10:24:34;;;;;;;27.73;6.33;;;12.40;99.90;;;;;;5137897;27;20435;-60
2023/01/05 10:27:06;;;;;;;28.07;7.03;;;12.50;99.90;;;;;;5138263;27;20434;-60
2023/01/05 10:29:40;;;;;;;30.63;8.40;;;12.50;99.90;;;;;;5136938;27;20430;-60
2023/01/05 10:32:17;;;;;;;23.40;6.80;;;12.50;99.90;;;;;;5136964;27;20473;-60
2023/01/05 10:34:58;;;;;;;24.07;6.00;;;12.50;99.90;;;;;;5137038;27;20422;-60
2023/01/05 10:37:54;;;;;;;21.87;6.70;;;12.50;99.80;;;;;;5136879;27;20552;-60
2023/01/05 10:40:32;;;;;;;27.73;6.40;;;12.50;99.80;;;;;;5135187;27;20481;-60
2023/01/05 10:43:21;;;;;;;21.20;6.37;;;12.50;99.90;;;;;;5136948;27;20466;-60
2023/01/05 10:45:48;;;;;;;32.30;6.80;;;12.40;99.90;;;;;;5137273;27;20427;-61
2023/01/05 10:48:18;;;;;;;26.17;5.83;;;12.50;99.90;;;;;;5136832;27;20425;-60
2023/01/05 10:50:48;;;;;;;21.70;6.00;;;12.50;99.90;;;;;;5136995;27;20438;-60
2023/01/05 10:53:18;;;;;;;26.40;5.77;;;12.50;99.40;;;;;;5136922;27;20816;-60
2023/01/05 10:55:53;;;;;;;23.93;5.60;;;12.60;99.20;;;;;;5137272;27;20446;-60
2023/01/05 10:58:24;;;;;;;30.40;7.23;;;12.60;99.40;;;;;;5137546;27;20484;-60
2023/01/05 11:00:54;;;;;;;24.70;6.20;;;12.70;99.40;;;;;;5136944;27;20423;-61
2023/01/05 11:03:34;;;;;;;18.57;6.87;;;12.80;99.00;;;;;;5137507;27;20499;-61
2023/01/05 11:06:03;;;;;;;24.03;6.43;;;12.70;98.60;;;;;;5137433;27;20437;-61
2023/01/05 11:08:31;;;;;;;23.77;6.63;;;12.80;98.90;;;;;;5138045;27;20434;-61
2023/01/05 11:11:00;;;;;;;23.93;6.70;;;12.80;98.70;;;;;;5138251;27;20457;-61
2023/01/05 11:13:32;;;;;;;25.93;7.30;;;12.80;98.30;;;;;;5137918;27;20849;-61
2023/01/05 11:16:03;;;;;;;24.90;7.00;;;12.80;98.60;;;;;;5137470;27;20445;-61
2023/01/05 11:18:34;;;;;;;19.77;6.83;;;12.80;98.60;;;;;;5137483;27;20474;-60
2023/01/05 11:21:07;;;;;;;21.53;6.10;;;12.80;98.50;;;;;;5137231;27;20512;-61
2023/01/05 11:23:36;;;;;;;18.43;5.57;;;12.80;98.40;;;;;;5136995;27;20458;-61
2023/01/05 11:26:22;;;;;;;23.60;7.20;;;12.70;98.10;;;;;;5136966;27;20926;-60
2023/01/05 11:29:13;;;;;;;26.43;6.50;;;12.80;98.10;;;;;;5137073;27;20430;-61
2023/01/05 11:31:44;;;;;;;20.40;5.97;;;12.80;98.30;;;;;;5133319;27;20481;-61
2023/01/05 11:34:20;;;;;;;24.33;5.80;;;12.80;98.10;;;;;;5137319;27;20475;-60
2023/01/05 11:36:54;;;;;;;15.93;5.10;;;12.90;97.90;;;;;;5137736;27;20440;-60
2023/01/05 11:39:29;;;;;;;25.63;5.87;;;13.00;98.40;;;;;;5137301;27;20460;-60
2023/01/05 11:42:12;;;;;;;22.57;6.73;;;12.90;98.00;;;;;;5125756;27;20467;-61
2023/01/05 11:44:41;;;;;;;25.87;7.10;;;12.90;98.40;;;;;;5117180;28;20442;-61
2023/01/05 11:47:09;;;;;;;22.67;5.77;;;13.10;98.40;;;;;;5117870;28;20509;-61
2023/01/05 11:49:37;;;;;;;20.00;6.80;;;13.20;98.60;;;;;;5118116;28;20427;-61
2023/01/05 11:52:25;;;;;;;23.40;5.80;;;13.40;97.60;;;;;;5117289;28;20474;-61
2023/01/05 11:54:52;;;;;;;17.80;4.87;;;13.40;96.70;;;;;;5116604;28;20771;-61
2023/01/05 11:57:21;;;;;;;22.33;5.53;;;13.50;97.00;;;;;;5116506;28;20455;-60
2023/01/05 11:59:49;;;;;;;17.50;7.10;;;13.50;96.90;;;;;;5116558;28;20479;-60
2023/01/05 12:02:43;;;;;;;21.10;5.50;;;13.60;96.70;;;;;;5116912;28;21078;-60
2023/01/05 12:05:30;;;;;;;22.40;5.83;;;13.60;96.10;;;;;;5116692;28;20423;-60
2023/01/05 12:08:06;;;;;;;20.57;5.10;;;13.60;96.00;;;;;;5116176;28;20438;-60
2023/01/05 12:11:01;;;;;;;17.77;5.90;;;13.60;95.90;;;;;;5115043;28;20431;-60
2023/01/05 12:13:57;;;;;;;17.13;7.10;;;13.60;96.30;;;;;;5102145;28;20462;-60
2023/01/05 12:16:42;;;;;;;19.63;4.67;;;13.40;96.00;;;;;;5115234;28;20435;-60
2023/01/05 12:19:25;;;;;;;16.13;4.73;;;13.30;96.60;;;;;;5114844;28;20470;-60
2023/01/05 12:22:10;;;;;;;23.20;5.73;;;13.30;96.80;;;;;;5114689;28;20471;-60
2023/01/05 12:24:53;;;;;;;19.33;5.13;;;13.20;96.90;;;;;;5115296;28;20966;-60
2023/01/05 12:27:36;;;;;;;17.40;5.10;;;13.00;97.20;;;;;;5114811;28;20423;-60
2023/01/05 12:30:20;;;;;;;19.63;5.97;;;13.00;97.40;;;;;;5114644;28;20435;-60
2023/01/05 12:33:09;;;;;;;18.40;5.00;;;13.00;97.30;;;;;;5114655;28;20474;-61
2023/01/05 12:36:06;;;;;;;14.60;5.03;;;13.00;97.00;;;;;;5114808;28;20450;-61
2023/01/05 12:38:40;;;;;;;16.63;4.57;;;13.20;96.90;;;;;;5113425;28;20998;-61
2023/01/05 12:41:25;;;;;;;18.10;5.17;;;13.70;96.10;;;;;;5115037;28;20484;-61
2023/01/05 12:44:02;;;;;;;21.50;5.30;;;13.90;94.00;;;;;;5115151;28;20427;-61
2023/01/05 12:46:42;;;;;;;21.60;5.80;;;13.80;93.60;;;;;;5115510;28;20423;-61
2023/01/05 12:49:12;;;;;;;21.53;5.80;;;13.90;94.10;;;;;;5116378;28;20811;-62
2023/01/05 12:51:45;;;;;;;23.47;5.33;;;13.80;93.70;;;;;;5115493;28;20690;-61
2023/01/05 12:54:25;;;;;;;21.70;6.57;;;13.70;94.20;;;;;;5119924;28;20431;-61
2023/01/05 12:56:58;;;;;;;16.90;4.90;;;13.60;94.20;;;;;;5119753;28;20473;-61
2023/01/05 12:59:32;;;;;;;18.43;5.60;;;13.50;94.40;;;;;;5119146;28;20478;-61
2023/01/05 13:02:04;;;;;;;24.17;5.57;;;13.60;94.90;;;;;;5119656;28;20474;-61
2023/01/05 13:04:40;;;;;;;20.70;5.20;;;13.70;95.10;;;;;;5119203;28;20438;-61
2023/01/05 13:07:10;;;;;;;29.40;5.30;;;13.70;95.40;;;;;;5119200;28;20431;-61
2023/01/05 13:09:37;;;;;;;28.63;5.90;;;13.70;94.90;;;;;;5119186;28;20423;-61
2023/01/05 13:12:09;;;;;;;18.67;4.67;;;13.70;94.90;;;;;;5118757;28;20491;-61
2023/01/05 13:14:40;;;;;;;22.47;6.63;;;13.60;94.30;;;;;;5118241;28;20846;-60
2023/01/05 13:17:15;;;;;;;21.83;5.70;;;13.50;94.30;;;;;;5118623;28;20432;-61
2023/01/05 13:19:46;;;;;;;21.07;5.27;;;13.50;94.70;;;;;;5118566;28;20470;-60
2023/01/05 13:22:21;;;;;;;23.13;6.27;;;13.50;94.60;;;;;;5118359;28;20471;-61
2023/01/05 13:24:52;;;;;;;21.13;5.13;;;13.40;94.30;;;;;;5118616;28;20496;-61
2023/01/05 13:27:20;;;;;;;20.83;5.87;;;13.30;94.70;;;;;;5118579;28;20842;-61
2023/01/05 13:29:50;;;;;;;16.87;5.57;;;13.30;94.40;;;;;;5118212;28;20442;-60